createdAt,value
2018-03-03T00:01:10.092Z,46.90
2018-03-03T00:03:38.339Z,46.70
2018-03-03T00:06:05.848Z,47.37
2018-03-03T00:08:33.340Z,49.30
2018-03-03T00:11:00.850Z,46.80
2018-03-03T00:13:28.340Z,48.33
2018-03-03T00:15:55.855Z,47.20
2018-03-03T00:18:23.345Z,48.70
2018-03-03T00:20:50.871Z,44.00
2018-03-03T00:23:19.129Z,46.33
2018-03-03T00:25:46.619Z,56.50
2018-03-03T00:28:14.128Z,54.90
2018-03-03T00:30:41.620Z,50.43
2018-03-03T00:33:09.136Z,46.10
2018-03-03T00:35:37.396Z,48.70
2018-03-03T00:38:04.907Z,47.53
2018-03-03T00:40:33.160Z,49.17
2018-03-03T00:43:00.667Z,47.40
2018-03-03T00:45:28.923Z,46.83
2018-03-03T00:47:56.430Z,46.47
2018-03-03T00:50:23.941Z,48.33
2018-03-03T00:52:51.442Z,49.57
2018-03-03T00:55:18.960Z,48.77
2018-03-03T00:57:46.454Z,50.50
2018-03-03T01:00:13.968Z,50.90
2018-03-03T01:02:42.228Z,45.13
2018-03-03T01:05:09.740Z,47.30
2018-03-03T01:07:37.232Z,46.30
2018-03-03T01:10:04.720Z,46.77
2018-03-03T01:12:32.232Z,51.73
2018-03-03T01:15:00.488Z,48.43
2018-03-03T01:17:28.000Z,47.53
2018-03-03T01:19:56.265Z,47.53
2018-03-03T01:22:23.782Z,50.67
2018-03-03T01:24:52.037Z,48.87
2018-03-03T01:27:20.312Z,51.47
2018-03-03T01:29:47.812Z,49.23
2018-03-03T01:32:15.325Z,52.27
2018-03-03T01:34:46.171Z,53.03
2018-03-03T01:37:13.684Z,51.00
2018-03-03T01:39:41.940Z,53.00
2018-03-03T01:42:09.448Z,50.27
2018-03-03T01:44:37.705Z,52.63
2018-03-03T01:47:05.220Z,52.93
2018-03-03T01:49:32.708Z,51.80
2018-03-03T01:52:00.209Z,53.10
2018-03-03T01:54:27.720Z,53.67
2018-03-03T01:56:55.976Z,55.70
2018-03-03T01:59:23.528Z,53.67
2018-03-03T02:01:51.024Z,51.90
2018-03-03T02:04:18.540Z,52.67
2018-03-03T02:06:46.033Z,51.87
2018-03-03T02:09:13.543Z,54.40
2018-03-03T02:11:41.032Z,52.70
2018-03-03T02:14:09.308Z,55.03
2018-03-03T02:16:36.804Z,56.50
2018-03-03T02:19:04.355Z,54.37
2018-03-03T02:21:31.821Z,55.47
2018-03-03T02:23:59.312Z,52.37
2018-03-03T02:26:26.825Z,53.20
2018-03-03T02:28:54.310Z,52.63
2018-03-03T02:31:21.822Z,54.27
2018-03-03T02:33:49.319Z,53.60
2018-03-03T02:36:16.842Z,52.73
2018-03-03T02:38:45.092Z,57.60
2018-03-03T02:41:12.606Z,52.67
2018-03-03T02:43:40.855Z,55.13
2018-03-03T02:46:08.355Z,51.87
2018-03-03T02:48:35.838Z,55.50
2018-03-03T02:51:04.117Z,53.23
2018-03-03T02:53:32.379Z,50.10
2018-03-03T02:55:59.879Z,52.57
2018-03-03T02:58:28.155Z,54.80
2018-03-03T03:00:55.639Z,55.17
2018-03-03T03:03:23.926Z,53.73
2018-03-03T03:05:52.187Z,55.40
2018-03-03T03:08:19.700Z,56.73
2018-03-03T03:10:47.960Z,50.97
2018-03-03T03:13:15.476Z,54.37
2018-03-03T03:15:42.968Z,54.90
2018-03-03T03:18:10.474Z,54.13
2018-03-03T03:20:37.987Z,55.60
2018-03-03T03:23:05.472Z,52.87
2018-03-03T03:25:32.975Z,54.97
2018-03-03T03:28:00.469Z,55.20
2018-03-03T03:30:28.750Z,51.00
2018-03-03T03:32:57.011Z,55.00
2018-03-03T03:35:24.519Z,56.10
2018-03-03T03:37:52.776Z,54.10
2018-03-03T03:40:20.291Z,52.53
2018-03-03T03:42:47.789Z,51.57
2018-03-03T03:45:15.280Z,55.53
2018-03-03T03:47:42.789Z,53.83
2018-03-03T03:50:11.039Z,52.90
2018-03-03T03:52:38.549Z,54.40
2018-03-03T03:55:06.809Z,54.13
2018-03-03T03:57:34.319Z,55.83
2018-03-03T04:00:01.804Z,53.67
2018-03-03T04:02:29.316Z,57.00
2018-03-03T04:04:56.814Z,54.10
2018-03-03T04:07:25.095Z,55.30
2018-03-03T04:09:53.351Z,53.70
2018-03-03T04:12:20.845Z,53.70
2018-03-03T04:14:48.353Z,53.83
2018-03-03T04:17:15.845Z,57.03
2018-03-03T04:19:43.361Z,53.10
2018-03-03T04:22:10.842Z,56.30
2018-03-03T04:24:38.351Z,53.10
2018-03-03T04:27:05.843Z,49.67
2018-03-03T04:29:33.351Z,53.47
2018-03-03T04:32:00.836Z,52.00
2018-03-03T04:34:29.108Z,52.27
2018-03-03T04:36:57.360Z,55.90
2018-03-03T04:39:24.876Z,52.70
2018-03-03T04:41:53.139Z,53.87
2018-03-03T04:44:20.652Z,54.20
2018-03-03T04:46:48.157Z,51.10
2018-03-03T04:49:15.658Z,53.97
2018-03-03T04:51:43.176Z,55.50
2018-03-03T04:54:10.673Z,52.97
2018-03-03T04:56:38.196Z,53.83
2018-03-03T04:59:07.275Z,55.80
2018-03-03T05:01:40.503Z,52.53
2018-03-03T05:07:23.916Z,47.10
2018-03-03T05:09:51.404Z,49.87
2018-03-03T05:12:20.824Z,52.50
2018-03-03T05:14:50.959Z,50.30
2018-03-03T05:17:24.156Z,49.80
2018-03-03T05:19:57.388Z,49.90
2018-03-03T05:22:30.611Z,51.90
2018-03-03T05:28:29.567Z,52.43
2018-03-03T05:31:12.956Z,53.30
2018-03-03T05:33:46.158Z,48.00
2018-03-03T05:36:19.484Z,51.57
2018-03-03T05:38:52.707Z,50.20
2018-03-03T05:44:33.054Z,51.90
2018-03-03T05:50:17.900Z,52.40
2018-03-03T05:52:47.831Z,48.90
2018-03-03T05:55:16.119Z,50.43
2018-03-03T05:57:50.138Z,50.30
2018-03-03T06:03:36.936Z,52.00
2018-03-03T06:06:10.790Z,50.67
2018-03-03T06:08:44.135Z,47.57
2018-03-03T06:11:11.624Z,50.50
2018-03-03T06:13:39.899Z,51.50
2018-03-03T06:16:07.389Z,51.07
2018-03-03T06:18:35.668Z,51.00
2018-03-03T06:21:03.183Z,52.40
2018-03-03T06:23:30.683Z,48.63
2018-03-03T06:25:58.196Z,52.27
2018-03-03T06:28:26.450Z,53.00
2018-03-03T06:30:53.965Z,48.93
2018-03-03T06:33:21.457Z,52.17
2018-03-03T06:35:48.964Z,54.20
2018-03-03T06:38:16.455Z,54.03
2018-03-03T06:40:44.732Z,52.43
2018-03-03T06:43:12.215Z,49.83
2018-03-03T06:45:40.482Z,46.77
2018-03-03T06:48:07.965Z,48.23
2018-03-03T06:50:36.245Z,49.87
2018-03-03T06:53:03.743Z,48.40
2018-03-03T06:55:31.990Z,46.17
2018-03-03T06:57:59.504Z,48.10
2018-03-03T07:00:27.001Z,49.80
2018-03-03T07:02:54.507Z,50.03
2018-03-03T07:05:22.007Z,45.67
2018-03-03T07:07:50.284Z,48.90
2018-03-03T07:10:18.539Z,47.73
2018-03-03T07:12:46.043Z,47.20
2018-03-03T07:15:14.301Z,49.20
2018-03-03T07:17:41.816Z,46.13
2018-03-03T07:20:10.071Z,47.77
2018-03-03T07:22:37.594Z,53.03
2018-03-03T07:25:05.080Z,48.20
2018-03-03T07:27:32.563Z,50.27
2018-03-03T07:30:00.070Z,49.47
2018-03-03T07:32:28.336Z,47.40
2018-03-03T07:34:55.843Z,47.30
2018-03-03T07:37:24.092Z,48.40
2018-03-03T07:39:51.594Z,47.23
2018-03-03T07:42:19.852Z,47.20
2018-03-03T07:44:47.363Z,49.07
2018-03-03T07:47:14.838Z,50.13
2018-03-03T07:49:42.344Z,48.27
2018-03-03T07:52:09.844Z,49.63
2018-03-03T07:54:37.348Z,46.00
2018-03-03T07:57:11.575Z,47.90
2018-03-03T07:59:39.104Z,49.83
2018-03-03T08:02:06.667Z,48.07
2018-03-03T08:04:34.151Z,49.40
2018-03-03T08:07:01.652Z,50.13
2018-03-03T08:09:29.902Z,47.87
2018-03-03T08:11:57.408Z,46.00
2018-03-03T08:14:26.661Z,49.27
2018-03-03T08:16:54.175Z,49.30
2018-03-03T08:19:22.428Z,48.77
2018-03-03T08:21:49.935Z,47.53
2018-03-03T08:24:17.427Z,48.33
2018-03-03T08:26:44.936Z,51.53
2018-03-03T08:29:12.421Z,47.87
2018-03-03T08:31:39.916Z,50.60
2018-03-03T08:34:08.183Z,48.70
2018-03-03T08:36:35.663Z,49.50
2018-03-03T08:39:03.174Z,51.77
2018-03-03T08:41:30.662Z,50.37
2018-03-03T08:43:58.222Z,50.53
2018-03-03T08:46:25.664Z,48.80
2018-03-03T08:48:53.940Z,51.80
2018-03-03T08:51:21.432Z,49.60
2018-03-03T08:53:48.963Z,51.40
2018-03-03T08:56:16.772Z,53.57
2018-03-03T08:58:45.041Z,51.40
2018-03-03T09:01:12.548Z,52.90
2018-03-03T09:03:40.031Z,52.03
2018-03-03T09:06:07.536Z,49.30
2018-03-03T09:08:35.029Z,65.47
2018-03-03T09:11:03.308Z,54.50
2018-03-03T09:13:30.800Z,50.30
2018-03-03T09:15:58.316Z,51.17
2018-03-03T09:18:25.790Z,51.87
2018-03-03T09:20:53.297Z,51.33
2018-03-03T09:23:20.811Z,53.40
2018-03-03T09:25:48.636Z,52.37
2018-03-03T09:28:16.115Z,54.07
2018-03-03T09:30:43.596Z,68.27
2018-03-03T09:33:11.867Z,52.43
2018-03-03T09:35:39.347Z,51.83
2018-03-03T09:38:07.620Z,52.80
2018-03-03T09:40:35.104Z,50.70
2018-03-03T09:43:10.092Z,53.57
2018-03-03T09:45:38.352Z,52.00
2018-03-03T09:48:06.629Z,52.33
2018-03-03T09:50:34.893Z,51.03
2018-03-03T09:53:02.391Z,51.50
2018-03-03T09:55:30.648Z,51.20
2018-03-03T09:57:58.135Z,50.40
2018-03-03T10:00:25.638Z,47.00
2018-03-03T10:02:53.130Z,51.67
2018-03-03T10:05:20.689Z,77.73
2018-03-03T10:07:48.203Z,55.13
2018-03-03T10:10:15.765Z,53.40
2018-03-03T10:12:43.259Z,54.23
2018-03-03T10:15:11.561Z,52.20
2018-03-03T10:17:39.855Z,50.83
2018-03-03T10:20:08.169Z,49.83
2018-03-03T10:22:35.672Z,48.10
2018-03-03T10:25:03.185Z,51.17
2018-03-03T10:27:31.496Z,50.30
2018-03-03T10:29:59.273Z,51.20
2018-03-03T10:32:26.871Z,52.07
2018-03-03T10:34:54.419Z,47.50
2018-03-03T10:37:21.954Z,51.13
2018-03-03T10:39:50.274Z,51.03
2018-03-03T10:42:17.774Z,47.20
2018-03-03T10:44:45.275Z,51.50
2018-03-03T10:47:12.755Z,50.50
2018-03-03T10:49:41.072Z,52.30
2018-03-03T10:52:09.388Z,50.87
2018-03-03T10:54:36.885Z,51.93
2018-03-03T10:57:04.415Z,64.30
2018-03-03T10:59:32.823Z,57.53
2018-03-03T11:02:00.332Z,48.70
2018-03-03T11:04:31.852Z,50.27
2018-03-03T11:06:59.351Z,47.70
2018-03-03T11:09:26.828Z,49.83
2018-03-03T11:11:54.336Z,52.40
2018-03-03T11:14:21.824Z,49.77
2018-03-03T11:16:49.335Z,49.80
2018-03-03T11:19:16.819Z,50.87
2018-03-03T11:21:44.324Z,64.60
2018-03-03T11:24:11.829Z,59.83
2018-03-03T11:26:39.330Z,56.70
2018-03-03T11:29:06.815Z,48.57
2018-03-03T11:31:35.083Z,50.83
2018-03-03T11:34:02.571Z,51.83
2018-03-03T11:36:30.843Z,51.77
2018-03-03T11:38:58.322Z,50.77
2018-03-03T11:41:26.595Z,47.83
2018-03-03T11:43:54.090Z,50.70
2018-03-03T11:46:21.606Z,49.83
2018-03-03T11:48:49.096Z,49.83
2018-03-03T11:51:16.604Z,49.77
2018-03-03T11:53:45.205Z,50.87
2018-03-03T11:56:12.680Z,49.47
2018-03-03T11:58:40.186Z,49.83
2018-03-03T12:01:07.667Z,51.97
2018-03-03T12:03:35.169Z,48.50
2018-03-03T12:06:03.424Z,49.90
2018-03-03T12:08:30.989Z,51.70
2018-03-03T12:10:58.460Z,49.00
2018-03-03T12:13:25.971Z,45.00
2018-03-03T12:15:54.232Z,48.07
2018-03-03T12:18:21.745Z,47.73
2018-03-03T12:20:49.236Z,46.47
2018-03-03T12:23:16.740Z,47.57
2018-03-03T12:25:44.609Z,47.50
2018-03-03T12:28:22.577Z,49.50
2018-03-03T12:30:50.065Z,49.27
2018-03-03T12:33:17.582Z,47.43
2018-03-03T12:35:45.095Z,47.20
2018-03-03T12:38:12.584Z,49.00
2018-03-03T12:40:40.069Z,45.67
2018-03-03T12:43:07.577Z,50.10
2018-03-03T12:45:35.062Z,48.03
2018-03-03T12:48:03.340Z,48.40
2018-03-03T12:50:31.600Z,46.20
2018-03-03T12:52:59.126Z,44.77
2018-03-03T12:55:27.376Z,45.20
2018-03-03T12:57:55.654Z,45.17
2018-03-03T13:00:23.169Z,48.27
2018-03-03T13:02:50.660Z,47.00
2018-03-03T13:05:18.159Z,43.30
2018-03-03T13:07:45.639Z,46.07
2018-03-03T13:10:13.136Z,44.93
2018-03-03T13:12:41.411Z,44.43
2018-03-03T13:15:08.916Z,46.70
2018-03-03T13:17:39.428Z,45.80
2018-03-03T13:20:07.695Z,45.83
2018-03-03T13:22:35.184Z,46.80
2018-03-03T13:25:03.459Z,45.10
2018-03-03T13:27:31.002Z,44.80
2018-03-03T13:29:58.472Z,43.00
2018-03-03T13:32:25.957Z,43.20
2018-03-03T13:34:53.478Z,43.50
2018-03-03T13:37:20.975Z,45.10
2018-03-03T13:39:48.498Z,46.57
2018-03-03T13:42:16.760Z,43.60
2018-03-03T13:44:44.272Z,41.70
2018-03-03T13:47:11.760Z,41.17
2018-03-03T13:50:00.678Z,43.03
2018-03-03T13:52:28.172Z,44.10
2018-03-03T13:54:56.441Z,42.27
2018-03-03T13:57:23.953Z,43.20
2018-03-03T13:59:51.440Z,47.37
2018-03-03T14:02:18.949Z,49.33
2018-03-03T14:04:46.435Z,42.00
2018-03-03T14:07:13.964Z,40.10
2018-03-03T14:09:41.455Z,41.67
2018-03-03T14:12:08.979Z,41.57
2018-03-03T14:14:40.168Z,42.53
2018-03-03T14:17:07.800Z,43.23
2018-03-03T14:19:35.279Z,41.17
2018-03-03T14:22:02.797Z,42.00
2018-03-03T14:24:30.297Z,55.80
2018-03-03T14:26:58.563Z,47.23
2018-03-03T14:29:26.074Z,45.20
2018-03-03T14:31:53.590Z,42.33
2018-03-03T14:34:21.081Z,43.30
2018-03-03T14:36:48.580Z,43.07
2018-03-03T14:39:16.062Z,42.57
2018-03-03T14:41:43.585Z,51.33
2018-03-03T14:44:11.099Z,45.73
2018-03-03T14:46:38.618Z,46.40
2018-03-03T14:49:06.165Z,44.23
2018-03-03T14:51:33.664Z,42.40
2018-03-03T14:54:01.188Z,40.93
2018-03-03T14:56:28.695Z,42.73
2018-03-03T14:58:56.264Z,42.03
2018-03-03T15:01:23.771Z,41.67
2018-03-03T15:03:51.352Z,44.53
2018-03-03T15:06:18.852Z,43.23
2018-03-03T15:08:46.355Z,41.70
2018-03-03T15:11:13.844Z,44.03
2018-03-03T15:13:41.356Z,43.37
2018-03-03T15:16:08.846Z,42.23
2018-03-03T15:18:40.016Z,42.77
2018-03-03T15:21:07.496Z,42.50
2018-03-03T15:23:34.999Z,43.60
2018-03-03T15:26:03.252Z,46.20
2018-03-03T15:28:30.770Z,44.30
2018-03-03T15:31:01.352Z,41.97
2018-03-03T15:33:28.855Z,45.03
2018-03-03T15:35:56.340Z,43.10
2018-03-03T15:38:23.865Z,45.47
2018-03-03T15:40:51.357Z,51.93
2018-03-03T15:43:18.871Z,65.27
2018-03-03T15:45:46.359Z,44.30
2018-03-03T15:48:13.866Z,45.23
2018-03-03T15:50:41.351Z,47.10
2018-03-03T15:53:09.596Z,45.73
2018-03-03T15:55:37.104Z,47.57
2018-03-03T15:58:05.352Z,43.87
2018-03-03T16:00:32.855Z,46.30
2018-03-03T16:03:00.336Z,44.30
2018-03-03T16:05:28.623Z,42.10
2018-03-03T16:07:56.104Z,45.67
2018-03-03T16:10:24.367Z,44.40
2018-03-03T16:12:51.857Z,46.13
2018-03-03T16:15:24.207Z,44.47
2018-03-03T16:17:51.696Z,44.30
2018-03-03T16:20:19.194Z,46.70
2018-03-03T16:22:46.703Z,47.30
2018-03-03T16:25:14.220Z,57.77
2018-03-03T16:27:41.700Z,48.50
2018-03-03T16:30:11.900Z,47.13
2018-03-03T16:32:39.384Z,44.80
2018-03-03T16:35:06.892Z,45.00
2018-03-03T16:37:34.376Z,44.20
2018-03-03T16:40:02.241Z,44.53
2018-03-03T16:42:31.688Z,46.03
2018-03-03T16:44:59.254Z,44.77
2018-03-03T16:47:26.712Z,44.63
2018-03-03T16:49:54.226Z,45.67
2018-03-03T16:52:21.956Z,47.50
2018-03-03T16:54:49.514Z,48.00
2018-03-03T16:57:17.017Z,49.17
2018-03-03T16:59:44.613Z,48.27
2018-03-03T17:02:12.222Z,45.40
2018-03-03T17:04:39.748Z,47.67
2018-03-03T17:07:07.318Z,45.03
2018-03-03T17:09:34.808Z,46.30
2018-03-03T17:12:02.331Z,55.73
2018-03-03T17:14:29.824Z,53.27
2018-03-03T17:16:57.363Z,47.80
2018-03-03T17:19:24.857Z,46.03
2018-03-03T17:21:52.372Z,48.03
2018-03-03T17:24:20.650Z,47.70
2018-03-03T17:26:49.049Z,46.27
2018-03-03T17:29:16.589Z,47.87
2018-03-03T17:31:44.122Z,48.30
2018-03-03T17:34:11.652Z,46.07
2018-03-03T17:36:39.196Z,49.03
2018-03-03T17:39:06.708Z,47.10
2018-03-03T17:41:34.979Z,47.10
2018-03-03T17:44:02.472Z,51.40
2018-03-03T17:46:30.752Z,50.53
2018-03-03T17:48:59.024Z,49.30
2018-03-03T17:51:26.546Z,52.90
2018-03-03T17:53:54.040Z,49.07
2018-03-03T17:56:21.560Z,46.67
2018-03-03T17:58:49.816Z,51.50
2018-03-03T18:01:17.298Z,49.93
2018-03-03T18:03:44.820Z,49.70
2018-03-03T18:06:12.324Z,50.03
2018-03-03T18:08:39.827Z,51.87
2018-03-03T18:11:08.124Z,51.53
2018-03-03T18:13:35.636Z,50.10
2018-03-03T18:16:03.120Z,47.60
2018-03-03T18:18:30.636Z,48.17
2018-03-03T18:20:58.136Z,51.37
2018-03-03T18:23:25.635Z,49.03
2018-03-03T18:25:53.133Z,49.93
2018-03-03T18:28:21.407Z,51.70
2018-03-03T18:30:48.937Z,50.03
2018-03-03T18:33:16.447Z,51.63
2018-03-03T18:35:43.949Z,50.00
2018-03-03T18:38:11.464Z,54.57
2018-03-03T18:40:38.955Z,52.87
2018-03-03T18:43:06.477Z,51.27
2018-03-03T18:45:33.965Z,53.53
2018-03-03T18:48:01.481Z,53.10
2018-03-03T18:50:29.731Z,54.17
2018-03-03T18:52:57.240Z,52.60
2018-03-03T18:55:25.497Z,51.47
2018-03-03T18:57:53.007Z,51.53
2018-03-03T19:00:21.265Z,55.87
2018-03-03T19:02:48.848Z,52.17
2018-03-03T19:05:17.135Z,53.10
2018-03-03T19:07:44.618Z,53.40
2018-03-03T19:10:12.908Z,52.80
2018-03-03T19:12:41.169Z,52.30
2018-03-03T19:15:08.706Z,52.17
2018-03-03T19:17:36.190Z,55.73
2018-03-03T19:20:03.691Z,55.07
2018-03-03T19:22:31.183Z,55.27
2018-03-03T19:24:59.470Z,53.77
2018-03-03T19:27:27.731Z,50.70
2018-03-03T19:29:55.248Z,52.60
2018-03-03T19:32:22.754Z,51.33
2018-03-03T19:34:50.268Z,52.63
2018-03-03T19:37:18.532Z,55.07
2018-03-03T19:39:46.192Z,51.33
2018-03-03T19:42:13.690Z,53.67
2018-03-03T19:44:41.233Z,53.83
2018-03-03T19:47:08.736Z,52.17
2018-03-03T19:49:36.250Z,56.67
2018-03-03T19:52:03.748Z,53.03
2018-03-03T19:54:31.268Z,51.93
2018-03-03T19:56:58.764Z,53.30
2018-03-03T19:59:26.272Z,55.43
2018-03-03T20:01:53.779Z,52.60
2018-03-03T20:04:21.292Z,52.87
2018-03-03T20:06:48.778Z,52.80
2018-03-03T20:09:16.310Z,54.23
2018-03-03T20:11:43.796Z,53.83
2018-03-03T20:14:11.304Z,53.07
2018-03-03T20:16:39.577Z,52.07
2018-03-03T20:19:07.083Z,52.20
2018-03-03T20:21:35.335Z,58.37
2018-03-03T20:24:02.844Z,55.03
2018-03-03T20:26:31.105Z,54.67
2018-03-03T20:28:58.620Z,54.67
2018-03-03T20:31:26.109Z,57.67
2018-03-03T20:33:53.661Z,51.87
2018-03-03T20:36:21.165Z,55.07
2018-03-03T20:38:48.696Z,55.93
2018-03-03T20:41:16.188Z,52.97
2018-03-03T20:43:43.682Z,53.27
2018-03-03T20:46:11.208Z,56.77
2018-03-03T20:48:38.700Z,59.20
2018-03-03T20:51:06.210Z,54.17
2018-03-03T20:53:33.697Z,53.53
2018-03-03T20:56:01.980Z,55.30
2018-03-03T20:58:29.485Z,56.50
2018-03-03T21:00:56.998Z,56.50
2018-03-03T21:03:24.496Z,56.33
2018-03-03T21:05:52.776Z,53.70
2018-03-03T21:08:20.263Z,53.83
2018-03-03T21:10:48.544Z,54.30
2018-03-03T21:13:16.801Z,55.90
2018-03-03T21:15:44.317Z,56.70
2018-03-03T21:18:11.806Z,52.77
2018-03-03T21:20:39.311Z,56.67
2018-03-03T21:23:06.799Z,54.30
2018-03-03T21:25:34.312Z,56.77
2018-03-03T21:28:01.809Z,55.50
2018-03-03T21:30:29.324Z,56.70
2018-03-03T21:32:57.575Z,55.27
2018-03-03T21:35:25.097Z,56.77
2018-03-03T21:37:52.596Z,55.10
2018-03-03T21:40:20.089Z,55.63
2018-03-03T21:42:47.628Z,59.23
2018-03-03T21:45:15.118Z,56.17
2018-03-03T21:47:42.623Z,57.60
2018-03-03T21:50:10.115Z,63.07
2018-03-03T21:52:38.398Z,56.97
2018-03-03T21:55:06.653Z,60.70
2018-03-03T21:57:34.169Z,58.77
2018-03-03T22:00:01.656Z,59.93
2018-03-03T22:02:29.161Z,56.10
2018-03-03T22:04:56.651Z,57.90
2018-03-03T22:07:24.155Z,59.40
2018-03-03T22:09:52.428Z,57.93
2018-03-03T22:12:20.703Z,58.30
2018-03-03T22:14:48.957Z,58.93
2018-03-03T22:17:16.476Z,59.20
2018-03-03T22:19:44.729Z,57.97
2018-03-03T22:22:12.240Z,58.17
2018-03-03T22:24:39.732Z,58.97
2018-03-03T22:27:07.228Z,58.83
2018-03-03T22:29:34.742Z,55.83
2018-03-03T22:32:03.005Z,55.93
2018-03-03T22:34:30.512Z,60.23
2018-03-03T22:36:58.000Z,61.37
2018-03-03T22:39:25.507Z,60.20
2018-03-03T22:41:52.996Z,57.83
2018-03-03T22:44:20.496Z,57.03
2018-03-03T22:46:47.983Z,59.53
2018-03-03T22:49:15.493Z,56.73
2018-03-03T22:51:43.579Z,68.43
2018-03-03T22:54:11.088Z,73.10
2018-03-03T22:56:38.575Z,62.83
2018-03-03T22:59:06.088Z,58.07
2018-03-03T23:01:33.581Z,57.97
2018-03-03T23:04:01.106Z,56.97
2018-03-03T23:06:28.596Z,60.57
2018-03-03T23:08:56.117Z,58.80
2018-03-03T23:11:23.604Z,57.97
2018-03-03T23:13:51.111Z,60.70
2018-03-03T23:16:20.619Z,57.43
2018-03-03T23:18:48.110Z,57.47
2018-03-03T23:21:15.619Z,56.63
2018-03-03T23:23:43.119Z,57.93
2018-03-03T23:26:10.636Z,55.87
2018-03-03T23:28:38.891Z,59.30
2018-03-03T23:31:06.439Z,57.27
2018-03-03T23:33:33.894Z,56.07
2018-03-03T23:36:01.408Z,57.47
2018-03-03T23:38:28.911Z,57.30
2018-03-03T23:40:56.419Z,104.47
2018-03-03T23:43:23.908Z,107.73
2018-03-03T23:45:51.412Z,63.00
2018-03-03T23:48:19.672Z,51.80
2018-03-03T23:50:47.179Z,59.03
2018-03-03T23:53:15.434Z,55.33
2018-03-03T23:55:42.956Z,56.07
2018-03-03T23:58:10.453Z,57.77
